createdAt,value
2018-11-07T00:09:25.902Z,9.07
2018-11-07T00:19:29.321Z,9.63
2018-11-07T00:29:32.785Z,10.07
2018-11-07T00:39:36.177Z,9.20
2018-11-07T00:49:39.530Z,9.07
2018-11-07T00:59:42.966Z,8.10
2018-11-07T01:09:46.304Z,7.60
2018-11-07T01:19:50.221Z,8.70
2018-11-07T01:29:53.570Z,8.60
2018-11-07T01:39:56.931Z,8.40
2018-11-07T01:50:00.284Z,9.10
2018-11-07T02:00:04.063Z,9.10
2018-11-07T02:10:08.125Z,8.10
2018-11-07T02:20:16.071Z,7.80
2018-11-07T02:30:19.449Z,7.53
2018-11-07T02:40:23.709Z,8.10
2018-11-07T02:50:27.091Z,9.17
2018-11-07T03:00:30.552Z,8.73
2018-11-07T03:10:34.022Z,8.17
2018-11-07T03:20:37.375Z,7.87
2018-11-07T03:30:40.817Z,8.00
2018-11-07T03:40:45.211Z,7.17
2018-11-07T03:50:49.551Z,6.70
2018-11-07T04:00:52.911Z,6.67
2018-11-07T04:10:56.239Z,6.50
2018-11-07T04:20:59.631Z,7.20
2018-11-07T04:31:03.461Z,6.33
2018-11-07T04:41:06.796Z,7.23
2018-11-07T04:51:10.124Z,7.40
2018-11-07T05:01:18.533Z,7.25
2018-11-07T05:11:22.300Z,7.70
2018-11-07T05:21:25.714Z,6.67
2018-11-07T05:31:29.107Z,6.23
2018-11-07T05:41:32.457Z,5.10
2018-11-07T05:51:35.851Z,4.70
2018-11-07T06:01:39.367Z,4.20
2018-11-07T06:11:48.481Z,3.67
2018-11-07T06:21:52.647Z,3.53
2018-11-07T06:31:56.510Z,3.70
2018-11-07T06:41:59.874Z,3.17
2018-11-07T06:52:03.695Z,3.02
2018-11-07T07:02:07.038Z,2.83
2018-11-07T07:12:10.412Z,2.60
2018-11-07T07:22:14.817Z,2.93
2018-11-07T07:32:18.333Z,2.67
2018-11-07T07:42:21.669Z,2.10
2018-11-07T07:52:25.888Z,2.20
2018-11-07T08:02:29.263Z,2.37
2018-11-07T08:12:32.681Z,2.80
2018-11-07T08:22:36.089Z,2.93
2018-11-07T08:32:39.800Z,1.90
2018-11-07T08:42:43.170Z,2.23
2018-11-07T08:52:51.061Z,1.97
2018-11-07T09:02:54.457Z,1.87
2018-11-07T09:12:57.812Z,2.13
2018-11-07T09:23:01.227Z,1.70
2018-11-07T09:33:04.587Z,1.90
2018-11-07T09:43:08.627Z,2.10
2018-11-07T09:53:12.077Z,1.93
2018-11-07T10:03:16.134Z,2.13
2018-11-07T10:13:19.470Z,1.90
2018-11-07T10:23:22.869Z,1.50
2018-11-07T10:33:26.233Z,1.57
2018-11-07T10:43:29.603Z,1.70
2018-11-07T10:53:36.823Z,1.50
2018-11-07T11:03:40.183Z,1.87
2018-11-07T11:13:43.655Z,1.70
2018-11-07T11:23:52.588Z,1.60
2018-11-07T11:33:56.005Z,1.60
2018-11-07T11:43:59.426Z,1.60
2018-11-07T11:54:02.835Z,1.90
2018-11-07T12:04:06.241Z,1.70
2018-11-07T12:14:09.591Z,1.57
2018-11-07T12:24:13.596Z,1.50
2018-11-07T12:34:18.710Z,1.37
2018-11-07T12:44:22.057Z,1.30
2018-11-07T12:54:25.462Z,1.57
2018-11-07T13:04:28.922Z,2.13
2018-11-07T13:14:32.195Z,1.87
2018-11-07T13:24:35.626Z,1.80
2018-11-07T13:34:38.978Z,1.60
2018-11-07T13:44:42.465Z,1.80
2018-11-07T13:54:49.663Z,1.90
2018-11-07T14:04:53.318Z,1.60
2018-11-07T14:14:56.740Z,1.80
2018-11-07T14:25:00.163Z,1.90
2018-11-07T14:35:03.519Z,2.17
2018-11-07T14:45:07.329Z,1.73
2018-11-07T14:55:11.558Z,1.70
2018-11-07T15:05:17.393Z,1.77
2018-11-07T15:15:20.821Z,2.73
2018-11-07T15:25:24.786Z,2.37
2018-11-07T15:35:28.156Z,1.87
2018-11-07T15:45:31.501Z,2.20
2018-11-07T15:55:34.877Z,2.20
2018-11-07T16:05:38.263Z,1.70
2018-11-07T16:15:41.710Z,2.10
2018-11-07T16:25:45.074Z,1.77
2018-11-07T16:35:49.436Z,2.10
2018-11-07T16:45:53.790Z,1.73
2018-11-07T16:55:57.999Z,1.70
2018-11-07T17:06:01.384Z,2.30
2018-11-07T17:16:04.988Z,1.93
2018-11-07T17:26:08.362Z,1.85
2018-11-07T17:36:11.687Z,1.50
2018-11-07T17:46:15.061Z,1.90
2018-11-07T17:56:19.730Z,1.40
2018-11-07T18:06:23.104Z,1.47
2018-11-07T18:16:26.476Z,1.47
2018-11-07T18:26:29.818Z,1.37
2018-11-07T18:36:33.155Z,1.47
2018-11-07T18:46:36.519Z,1.30
2018-11-07T18:56:39.885Z,1.60
2018-11-07T19:06:43.401Z,1.70
2018-11-07T19:16:46.702Z,1.40
2018-11-07T19:26:58.777Z,1.40
2018-11-07T19:37:02.016Z,1.50
2018-11-07T19:47:05.466Z,1.90
2018-11-07T19:57:08.818Z,2.10
2018-11-07T20:07:12.207Z,1.43
2018-11-07T20:17:15.580Z,1.43
2018-11-07T20:27:20.591Z,2.05
2018-11-07T20:37:23.989Z,1.70
2018-11-07T20:47:27.337Z,1.30
2018-11-07T20:57:30.701Z,2.10
2018-11-07T21:07:34.087Z,7.67
2018-11-07T21:17:37.440Z,2.37
2018-11-07T21:27:40.862Z,1.90
2018-11-07T21:37:44.240Z,2.00
2018-11-07T21:47:47.567Z,1.73
2018-11-07T21:57:54.900Z,1.77
2018-11-07T22:07:58.307Z,2.10
2018-11-07T22:18:01.649Z,2.00
2018-11-07T22:28:05.142Z,2.03
2018-11-07T22:38:08.498Z,2.30
2018-11-07T22:48:11.831Z,2.30
2018-11-07T22:58:15.219Z,2.50
2018-11-07T23:08:18.779Z,2.17
2018-11-07T23:18:22.619Z,2.83
2018-11-07T23:28:26.014Z,2.50
2018-11-07T23:38:29.396Z,2.70
2018-11-07T23:48:32.824Z,2.57
2018-11-07T23:58:36.285Z,2.50
